X

Important NEWS



New Hub Active

Miami is our new hub! Old members can request transfer via hr@dlxairways.net

Thank you very much and have nice flight.


Deluxe Airways.

X

Tours



Hello again, we created one nice test tour for all pilots to attend. also this is ment to be testing of our tour system

Available Tours

If you find some issues please inform us.

Thank you very much and have nice flight.


Deluxe Airways.

 METAR AND TAF INFORMATION
ArrayMETAR FOR EDFH
65592507 8 EDFH 121750Z 23008KT 9999 -SHRA SCT015CB 02/01 Q1002 EDFH 2019-11-12T17:50:00Z 49.95 7.27 2.0 1.0 230 8 6.21 29.586615 -SHRA VFR METAR 498.0 EDFH 121720Z 22010KT 9999 -SHRA FEW026CB 02/01 Q1002 EDFH 2019-11-12T17:20:00Z 49.95 7.27 2.0 1.0 220 10 6.21 29.586615 -SHRA VFR METAR 498.0 EDFH 121650Z 24008KT 9999 -SHRA FEW025CB 02/00 Q1002 EDFH 2019-11-12T16:50:00Z 49.95 7.27 2.0 0.0 240 8 6.21 29.586615 -SHRA VFR METAR 498.0

 AIRPORT MAP

 RUNWAY INFORMATION
Runway 03 Runway length 12467 ft Runway width 148 ft
Runway elevation 1649 ft Runway displaced threshold 3461 ft Runway heading 32
Runway 21 Runway length 12467 ft Runway width 148 ft
Runway elevation 1595 ft Runway displaced threshold 984 ft Runway heading 212

 AIRPORT FREQUENCIES
Type AFIS Name LANGEN INF Frequency 123.525 MHZ
Type APP Name LANGEN RAD Frequency 125.6 MHZ
Type ATIS Name ATIS Frequency 136.35 MHZ
Type GND Name GND Frequency 121.975 MHZ
Type TWR Name TWR Frequency 119.65 MHZ

 AIRPORT NEAR NAVIGATION AIDS
Type NDB Name Hahn Frequency 376 KHZ
Type DME Name Hahn Frequency 116950 KHZ



Powered by Virtual Airlines Manager [v2.6.2]

Template code change by DeluxeAir